createdAt,value
2015-04-08T00:00:15.635Z,100781
2015-04-08T00:00:33.291Z,100778
2015-04-08T00:00:51.604Z,100772
2015-04-08T00:01:09.919Z,100772
2015-04-08T00:01:28.247Z,100772
2015-04-08T00:01:46.560Z,100769
2015-04-08T00:02:04.872Z,100772
2015-04-08T00:02:23.203Z,100772
2015-04-08T00:02:41.516Z,100778
2015-04-08T00:02:59.828Z,100769
2015-04-08T00:03:18.143Z,100772
2015-04-08T00:03:36.471Z,100772
2015-04-08T00:03:54.783Z,100766
2015-04-08T00:04:13.114Z,100769
2015-04-08T00:04:31.426Z,100769
2015-04-08T00:04:49.739Z,100772
2015-04-08T00:05:07.410Z,100778
2015-04-08T00:05:25.069Z,100775
2015-04-08T00:05:43.522Z,100772
2015-04-08T00:06:01.850Z,100772
2015-04-08T00:06:20.289Z,100775
2015-04-08T00:06:38.618Z,100760
2015-04-08T00:06:57.071Z,100772
2015-04-08T00:07:15.368Z,100769
2015-04-08T00:07:33.699Z,100778
2015-04-08T00:07:52.011Z,100772
2015-04-08T00:08:10.339Z,100787
2015-04-08T00:08:28.655Z,100781
2015-04-08T00:08:46.311Z,100778
2015-04-08T00:09:03.967Z,100778
2015-04-08T00:09:22.297Z,100781
2015-04-08T00:09:40.610Z,100766
2015-04-08T00:09:58.922Z,100787
2015-04-08T00:10:17.235Z,100766
2015-04-08T00:10:35.565Z,100781
2015-04-08T00:10:53.878Z,100772
2015-04-08T00:11:12.206Z,100781
2015-04-08T00:11:30.520Z,100781
2015-04-08T00:11:48.833Z,100778
2015-04-08T00:12:07.161Z,100778
2015-04-08T00:12:24.820Z,100775
2015-04-08T00:12:43.133Z,100784
2015-04-08T00:13:01.461Z,100775
2015-04-08T00:13:19.773Z,100781
2015-04-08T00:13:38.088Z,100772
2015-04-08T00:13:56.400Z,100775
2015-04-08T00:14:14.728Z,100775
2015-04-08T00:14:33.044Z,100781
2015-04-08T00:14:51.356Z,100772
2015-04-08T00:15:09.028Z,100778
2015-04-08T00:15:27.343Z,100781
2015-04-08T00:15:45.655Z,100775
2015-04-08T00:16:03.983Z,100775
2015-04-08T00:16:21.640Z,100772
2015-04-08T00:16:39.954Z,100781
2015-04-08T00:16:58.282Z,100781
2015-04-08T00:17:16.595Z,100787
2015-04-08T00:17:34.925Z,100775
2015-04-08T00:17:53.237Z,100781
2015-04-08T00:18:11.550Z,100772
2015-04-08T00:18:29.865Z,100781
2015-04-08T00:18:48.193Z,100784
2015-04-08T00:19:06.506Z,100781
2015-04-08T00:19:24.818Z,100789
2015-04-08T00:19:43.134Z,100784
2015-04-08T00:20:01.462Z,100781
2015-04-08T00:20:19.775Z,100769
2015-04-08T00:20:38.087Z,100778
2015-04-08T00:20:56.542Z,100789
2015-04-08T00:21:14.855Z,100781
2015-04-08T00:21:33.183Z,100781
2015-04-08T00:21:50.842Z,100775
2015-04-08T00:22:09.155Z,100781
2015-04-08T00:22:26.826Z,100775
2015-04-08T00:22:45.282Z,100787
2015-04-08T00:23:02.938Z,100781
2015-04-08T00:23:21.266Z,100778
2015-04-08T00:23:39.578Z,100778
2015-04-08T00:23:57.893Z,100784
2015-04-08T00:24:16.221Z,100781
2015-04-08T00:24:34.534Z,100775
2015-04-08T00:24:52.192Z,100775
2015-04-08T00:25:10.520Z,100781
2015-04-08T00:25:28.832Z,100778
2015-04-08T00:25:47.148Z,100775
2015-04-08T00:26:04.945Z,100778
2015-04-08T00:26:23.257Z,100769
2015-04-08T00:26:41.710Z,100778
2015-04-08T00:26:59.509Z,100781
2015-04-08T00:27:17.166Z,100781
2015-04-08T00:27:34.837Z,100789
2015-04-08T00:27:53.153Z,100778
2015-04-08T00:28:11.465Z,100769
2015-04-08T00:28:29.794Z,100789
2015-04-08T00:28:48.108Z,100769
2015-04-08T00:29:05.124Z,100787
2015-04-08T00:29:23.561Z,100772
2015-04-08T00:29:41.889Z,100775
2015-04-08T00:30:00.204Z,100778
2015-04-08T00:30:18.532Z,100775
2015-04-08T00:30:36.844Z,100787
2015-04-08T00:30:55.159Z,100775
2015-04-08T00:31:13.487Z,100775
2015-04-08T00:31:31.800Z,100781
2015-04-08T00:31:50.115Z,100769
2015-04-08T00:32:08.428Z,100772
2015-04-08T00:32:26.756Z,100778
2015-04-08T00:32:45.068Z,100778
2015-04-08T00:33:03.383Z,100763
2015-04-08T00:33:21.711Z,100772
2015-04-08T00:33:40.023Z,100778
2015-04-08T00:33:58.339Z,100781
2015-04-08T00:34:16.667Z,100778
2015-04-08T00:34:34.964Z,100772
2015-04-08T00:34:52.638Z,100766
2015-04-08T00:35:10.950Z,100778
2015-04-08T00:35:28.606Z,100766
2015-04-08T00:35:46.278Z,100778
2015-04-08T00:36:03.937Z,100769
2015-04-08T00:36:22.265Z,100778
2015-04-08T00:36:40.577Z,100769
2015-04-08T00:36:58.890Z,100775
2015-04-08T00:37:17.204Z,100772
2015-04-08T00:37:35.532Z,100766
2015-04-08T00:37:53.845Z,100778
2015-04-08T00:38:12.177Z,100763
2015-04-08T00:38:30.489Z,100778
2015-04-08T00:38:48.802Z,100781
2015-04-08T00:39:07.114Z,100769
2015-04-08T00:39:24.787Z,100772
2015-04-08T00:39:42.444Z,100772
2015-04-08T00:40:00.772Z,100781
2015-04-08T00:40:18.432Z,100769
2015-04-08T00:40:36.744Z,100769
2015-04-08T00:40:55.198Z,100781
2015-04-08T00:41:13.526Z,100769
2015-04-08T00:41:31.825Z,100778
2015-04-08T00:41:49.496Z,100772
2015-04-08T00:42:07.950Z,100772
2015-04-08T00:42:25.608Z,100775
2015-04-08T00:42:43.920Z,100772
2015-04-08T00:43:02.373Z,100781
2015-04-08T00:43:20.688Z,100766
2015-04-08T00:43:39.000Z,100769
2015-04-08T00:43:57.329Z,100760
2015-04-08T00:44:15.641Z,100769
2015-04-08T00:44:33.956Z,100763
2015-04-08T00:44:52.284Z,100775
2015-04-08T00:45:10.596Z,100769
2015-04-08T00:45:28.912Z,100769
2015-04-08T00:45:47.240Z,100769
2015-04-08T00:46:05.552Z,100769
2015-04-08T00:46:23.867Z,100766
2015-04-08T00:46:42.195Z,100772
2015-04-08T00:47:00.507Z,100769
2015-04-08T00:47:18.820Z,100766
2015-04-08T00:47:36.478Z,100763
2015-04-08T00:47:54.806Z,100772
2015-04-08T00:48:13.119Z,100766
2015-04-08T00:48:31.450Z,100766
2015-04-08T00:48:49.762Z,100766
2015-04-08T00:49:08.075Z,100766
2015-04-08T00:49:26.405Z,100763
2015-04-08T00:49:44.718Z,100760
2015-04-08T00:50:03.030Z,100757
2015-04-08T00:50:21.343Z,100772
2015-04-08T00:50:39.017Z,100775
2015-04-08T00:50:57.330Z,100760
2015-04-08T00:51:15.642Z,100760
2015-04-08T00:51:33.973Z,100769
2015-04-08T00:51:52.285Z,100758
2015-04-08T00:52:10.598Z,100769
2015-04-08T00:52:28.929Z,100766
2015-04-08T00:52:47.241Z,100763
2015-04-08T00:53:05.554Z,100763
2015-04-08T00:53:23.210Z,100758
2015-04-08T00:53:40.884Z,100760
2015-04-08T00:53:59.196Z,100766
2015-04-08T00:54:17.524Z,100769
2015-04-08T00:54:35.839Z,100772
2015-04-08T00:54:54.151Z,100769
2015-04-08T00:55:11.948Z,100769
2015-04-08T00:55:30.263Z,100766
2015-04-08T00:55:47.935Z,100769
2015-04-08T00:56:05.591Z,100763
2015-04-08T00:56:23.903Z,100769
2015-04-08T00:56:42.235Z,100769
2015-04-08T00:57:00.547Z,100772
2015-04-08T00:57:18.875Z,100766
2015-04-08T00:57:37.203Z,100763
2015-04-08T00:57:54.205Z,100766
2015-04-08T00:58:12.533Z,100766
2015-04-08T00:58:30.846Z,100763
2015-04-08T00:58:49.176Z,100760
2015-04-08T00:59:07.489Z,100763
2015-04-08T00:59:25.160Z,100769
2015-04-08T00:59:42.817Z,100769
2015-04-08T01:00:01.148Z,100752
2015-04-08T01:00:19.460Z,100769
2015-04-08T01:00:37.773Z,100766
2015-04-08T01:00:55.431Z,100760
2015-04-08T01:01:13.744Z,100763
2015-04-08T01:01:31.415Z,100763
2015-04-08T01:01:49.712Z,100766
2015-04-08T01:02:08.043Z,100763
2015-04-08T01:02:25.840Z,100766
2015-04-08T01:02:43.497Z,100763
2015-04-08T01:03:01.155Z,100763
2015-04-08T01:03:19.483Z,100766
2015-04-08T01:03:37.795Z,100766
2015-04-08T01:03:56.111Z,100769
2015-04-08T01:04:13.783Z,100769
2015-04-08T01:04:32.095Z,100755
2015-04-08T01:04:50.423Z,100763
2015-04-08T01:05:08.738Z,100746
2015-04-08T01:05:27.066Z,100746
2015-04-08T01:05:45.379Z,100752
2015-04-08T01:06:03.694Z,100752
2015-04-08T01:06:22.007Z,100758
2015-04-08T01:06:40.319Z,100763
2015-04-08T01:07:02.587Z,100760
2015-04-08T01:07:20.899Z,100760
2015-04-08T01:07:39.212Z,100766
2015-04-08T01:07:56.884Z,100766
2015-04-08T01:08:15.198Z,100760
2015-04-08T01:08:33.511Z,100755
2015-04-08T01:08:51.182Z,100760
2015-04-08T01:09:09.497Z,100760
2015-04-08T01:09:27.950Z,100769
2015-04-08T01:09:46.263Z,100760
2015-04-08T01:10:04.578Z,100763
2015-04-08T01:10:22.250Z,100755
2015-04-08T01:10:40.578Z,100743
2015-04-08T01:10:58.891Z,100766
2015-04-08T01:11:17.205Z,100755
2015-04-08T01:11:35.533Z,100760
2015-04-08T01:11:53.846Z,100769
2015-04-08T01:12:12.161Z,100763
2015-04-08T01:12:30.474Z,100760
2015-04-08T01:12:48.802Z,100769
2015-04-08T01:13:07.116Z,100766
2015-04-08T01:13:25.429Z,100758
2015-04-08T01:13:43.741Z,100760
2015-04-08T01:14:02.069Z,100755
2015-04-08T01:14:19.728Z,100772
2015-04-08T01:14:37.400Z,100760
2015-04-08T01:14:55.712Z,100763
2015-04-08T01:15:13.370Z,100769
2015-04-08T01:15:31.167Z,100766
2015-04-08T01:15:49.480Z,100752
2015-04-08T01:16:07.935Z,100766
2015-04-08T01:16:26.247Z,100766
2015-04-08T01:16:43.919Z,100760
2015-04-08T01:17:02.232Z,100772
2015-04-08T01:17:20.564Z,100766
2015-04-08T01:17:38.892Z,100766
2015-04-08T01:17:57.189Z,100769
2015-04-08T01:18:14.986Z,100760
2015-04-08T01:18:33.316Z,100749
2015-04-08T01:18:51.628Z,100752
2015-04-08T01:19:09.941Z,100760
2015-04-08T01:19:28.272Z,100775
2015-04-08T01:19:46.584Z,100766
2015-04-08T01:20:04.241Z,100769
2015-04-08T01:20:22.569Z,100763
2015-04-08T01:20:40.883Z,100769
2015-04-08T01:20:59.196Z,100763
2015-04-08T01:21:17.508Z,100772
2015-04-08T01:21:35.854Z,100760
2015-04-08T01:21:52.854Z,100760
2015-04-08T01:22:10.526Z,100772
2015-04-08T01:22:28.840Z,100763
2015-04-08T01:22:47.153Z,100769
2015-04-08T01:23:05.465Z,100766
2015-04-08T01:23:23.794Z,100757
2015-04-08T01:23:42.109Z,100769
2015-04-08T01:24:00.422Z,100766
2015-04-08T01:24:18.750Z,100763
2015-04-08T01:24:37.064Z,100760
2015-04-08T01:24:55.392Z,100769
2015-04-08T01:25:13.689Z,100760
2015-04-08T01:25:32.019Z,100772
2015-04-08T01:25:50.332Z,100763
2015-04-08T01:26:08.660Z,100769
2015-04-08T01:26:26.957Z,100769
2015-04-08T01:26:45.412Z,100763
2015-04-08T01:27:03.084Z,100763
2015-04-08T01:27:21.396Z,100757
2015-04-08T01:27:39.712Z,100760
2015-04-08T01:27:57.509Z,100766
2015-04-08T01:28:15.962Z,100757
2015-04-08T01:28:34.277Z,100766
2015-04-08T01:28:51.949Z,100760
2015-04-08T01:29:10.262Z,100766
2015-04-08T01:29:28.574Z,100772
2015-04-08T01:29:46.904Z,100766
2015-04-08T01:30:05.217Z,100766
2015-04-08T01:30:21.561Z,100769
2015-04-08T01:30:39.875Z,100755
2015-04-08T01:30:58.203Z,100766
2015-04-08T01:31:16.531Z,100760
2015-04-08T01:31:34.844Z,100769
2015-04-08T01:31:53.159Z,100760
2015-04-08T01:32:11.487Z,100758
2015-04-08T01:32:29.800Z,100766
2015-04-08T01:32:48.114Z,100763
2015-04-08T01:33:05.771Z,100755
2015-04-08T01:33:24.099Z,100766
2015-04-08T01:33:41.757Z,100760
2015-04-08T01:34:00.070Z,100763
2015-04-08T01:34:17.741Z,100758
2015-04-08T01:34:36.054Z,100758
2015-04-08T01:34:54.369Z,100766
2015-04-08T01:35:12.682Z,100763
2015-04-08T01:35:30.354Z,100769
2015-04-08T01:35:48.010Z,100769
2015-04-08T01:36:06.326Z,100766
2015-04-08T01:36:23.357Z,100755
2015-04-08T01:36:41.013Z,100760
2015-04-08T01:36:59.328Z,100760
2015-04-08T01:37:17.656Z,100763
2015-04-08T01:37:35.968Z,100769
2015-04-08T01:37:54.124Z,100772
2015-04-08T01:38:12.455Z,100757
2015-04-08T01:38:30.767Z,100760
2015-04-08T01:38:49.095Z,100755
2015-04-08T01:39:07.411Z,100746
2015-04-08T01:39:25.723Z,100763
2015-04-08T01:39:44.051Z,100749
2015-04-08T01:40:02.366Z,100758
2015-04-08T01:40:20.678Z,100755
2015-04-08T01:40:39.131Z,100752
2015-04-08T01:40:57.444Z,100755
2015-04-08T01:41:15.118Z,100743
2015-04-08T01:41:33.430Z,100752
2015-04-08T01:41:51.743Z,100743
2015-04-08T01:42:10.057Z,100760
2015-04-08T01:42:28.370Z,100758
2015-04-08T01:42:46.682Z,100758
2015-04-08T01:43:05.013Z,100760
2015-04-08T01:43:23.326Z,100752
2015-04-08T01:43:41.638Z,100757
2015-04-08T01:43:59.295Z,100752
2015-04-08T01:44:17.625Z,100749
2015-04-08T01:44:35.937Z,100752
2015-04-08T01:44:53.594Z,100758
2015-04-08T01:45:11.925Z,100746
2015-04-08T01:45:30.237Z,100752
2015-04-08T01:45:48.550Z,100755
2015-04-08T01:46:06.895Z,100755
2015-04-08T01:46:25.192Z,100758
2015-04-08T01:46:43.536Z,100755
2015-04-08T01:47:01.817Z,100752
2015-04-08T01:47:20.148Z,100758
2015-04-08T01:47:37.805Z,100752
2015-04-08T01:47:56.133Z,100752
2015-04-08T01:48:14.571Z,100746
2015-04-08T01:48:32.884Z,100755
2015-04-08T01:48:51.196Z,100752
2015-04-08T01:49:09.527Z,100752
2015-04-08T01:49:27.840Z,100755
2015-04-08T01:49:44.840Z,100746
2015-04-08T01:50:02.512Z,100746
2015-04-08T01:50:20.827Z,100749
2015-04-08T01:50:38.484Z,100737
2015-04-08T01:50:55.499Z,100755
2015-04-08T01:51:13.812Z,100749
2015-04-08T01:51:32.126Z,100749
2015-04-08T01:51:50.454Z,100746
2015-04-08T01:52:08.767Z,100758
2015-04-08T01:52:27.081Z,100755
2015-04-08T01:52:45.394Z,100763
2015-04-08T01:53:03.066Z,100755
2015-04-08T01:53:21.380Z,100734
2015-04-08T01:53:39.708Z,100755
2015-04-08T01:53:58.021Z,100743
2015-04-08T01:54:16.333Z,100743
2015-04-08T01:54:33.993Z,100752
2015-04-08T01:54:52.305Z,100752
2015-04-08T01:55:10.633Z,100755
2015-04-08T01:55:28.949Z,100758
2015-04-08T01:55:47.261Z,100749
2015-04-08T01:56:05.714Z,100749
2015-04-08T01:56:24.044Z,100749
2015-04-08T01:56:42.357Z,100752
2015-04-08T01:57:00.029Z,100752
2015-04-08T01:57:18.326Z,100746
2015-04-08T01:57:36.640Z,100755
2015-04-08T01:57:54.312Z,100746
2015-04-08T01:58:12.625Z,100743
2015-04-08T01:58:30.940Z,100752
2015-04-08T01:58:48.612Z,100737
2015-04-08T01:59:06.940Z,100743
2015-04-08T01:59:25.255Z,100743
2015-04-08T01:59:43.583Z,100746
2015-04-08T02:00:01.895Z,100743
2015-04-08T02:00:20.208Z,100737
2015-04-08T02:00:38.522Z,100746
2015-04-08T02:00:56.850Z,100743
2015-04-08T02:01:15.147Z,100752
2015-04-08T02:01:33.462Z,100758
2015-04-08T02:01:51.274Z,100746
2015-04-08T02:02:08.274Z,100743
2015-04-08T02:02:26.589Z,100734
2015-04-08T02:02:43.604Z,100746
2015-04-08T02:03:01.932Z,100737
2015-04-08T02:03:20.245Z,100746
2015-04-08T02:03:37.904Z,100746
2015-04-08T02:03:55.576Z,100734
2015-04-08T02:04:13.889Z,100755
2015-04-08T02:04:32.203Z,100743
2015-04-08T02:04:50.516Z,100749
2015-04-08T02:05:08.844Z,100743
2015-04-08T02:05:27.156Z,100743
2015-04-08T02:05:45.471Z,100737
2015-04-08T02:06:03.799Z,100740
2015-04-08T02:06:22.111Z,100749
2015-04-08T02:06:40.427Z,100749
2015-04-08T02:06:58.755Z,100743
2015-04-08T02:07:17.067Z,100746
2015-04-08T02:07:35.383Z,100749
2015-04-08T02:07:53.055Z,100746
2015-04-08T02:08:10.727Z,100746
2015-04-08T02:08:27.727Z,100737
2015-04-08T02:08:45.401Z,100746
2015-04-08T02:09:03.713Z,100734
2015-04-08T02:09:22.026Z,100740
2015-04-08T02:09:39.699Z,100737
2015-04-08T02:09:57.356Z,100746
2015-04-08T02:10:15.684Z,100731
2015-04-08T02:10:33.996Z,100726
2015-04-08T02:10:52.311Z,100743
2015-04-08T02:11:10.623Z,100737
2015-04-08T02:11:28.951Z,100731
2015-04-08T02:11:47.267Z,100749
2015-04-08T02:12:05.579Z,100749
2015-04-08T02:12:23.892Z,100746
2015-04-08T02:12:42.222Z,100746
2015-04-08T02:13:00.535Z,100746
2015-04-08T02:13:18.847Z,100737
2015-04-08T02:13:37.175Z,100737
2015-04-08T02:13:55.490Z,100746
2015-04-08T02:14:13.802Z,100743
2015-04-08T02:14:32.115Z,100731
2015-04-08T02:14:50.446Z,100731
2015-04-08T02:15:08.758Z,100740
2015-04-08T02:15:27.071Z,100749
2015-04-08T02:15:45.385Z,100743
2015-04-08T02:16:03.057Z,100740
2015-04-08T02:16:20.713Z,100737
2015-04-08T02:16:39.042Z,100746
2015-04-08T02:16:57.356Z,100743
2015-04-08T02:17:15.669Z,100740
2015-04-08T02:17:33.340Z,100740
2015-04-08T02:17:51.653Z,100740
2015-04-08T02:18:09.984Z,100740
2015-04-08T02:18:28.297Z,100743
2015-04-08T02:18:45.953Z,100734
2015-04-08T02:19:04.267Z,100740
2015-04-08T02:19:22.595Z,100737
2015-04-08T02:19:41.049Z,100740
2015-04-08T02:19:59.363Z,100740
2015-04-08T02:20:17.676Z,100737
2015-04-08T02:20:35.347Z,100737
2015-04-08T02:20:53.660Z,100734
2015-04-08T02:21:11.975Z,100743
2015-04-08T02:21:30.288Z,100740
2015-04-08T02:21:48.600Z,100737
2015-04-08T02:22:06.932Z,100737
2015-04-08T02:22:24.588Z,100740
2015-04-08T02:22:42.900Z,100746
2015-04-08T02:23:01.215Z,100734
2015-04-08T02:23:18.230Z,100740
2015-04-08T02:23:35.887Z,100746
2015-04-08T02:23:54.199Z,100740
2015-04-08T02:24:11.217Z,100740
2015-04-08T02:24:28.873Z,100740
2015-04-08T02:24:47.326Z,100740
2015-04-08T02:25:05.641Z,100737
2015-04-08T02:25:23.969Z,100746
2015-04-08T02:25:42.281Z,100746
2015-04-08T02:25:59.922Z,100749
2015-04-08T02:26:18.253Z,100746
2015-04-08T02:26:36.566Z,100746
2015-04-08T02:26:54.894Z,100743
2015-04-08T02:27:13.209Z,100743
2015-04-08T02:27:31.522Z,100737
2015-04-08T02:27:49.834Z,100740
2015-04-08T02:28:08.163Z,100743
2015-04-08T02:28:26.476Z,100737
2015-04-08T02:28:44.929Z,100740
2015-04-08T02:29:02.585Z,100734
2015-04-08T02:29:20.260Z,100723
2015-04-08T02:29:38.698Z,100731
2015-04-08T02:29:56.369Z,100734
2015-04-08T02:30:14.684Z,100737
2015-04-08T02:30:32.356Z,100746
2015-04-08T02:30:50.668Z,100734
2015-04-08T02:31:08.984Z,100737
2015-04-08T02:31:27.296Z,100749
2015-04-08T02:31:45.624Z,100740
2015-04-08T02:32:03.937Z,100740
2015-04-08T02:32:22.251Z,100731
2015-04-08T02:32:39.923Z,100731
2015-04-08T02:32:57.580Z,100731
2015-04-08T02:33:16.035Z,100734
2015-04-08T02:33:34.347Z,100734
2015-04-08T02:33:52.019Z,100740
2015-04-08T02:34:10.334Z,100734
2015-04-08T02:34:28.646Z,100734
2015-04-08T02:34:46.974Z,100743
2015-04-08T02:35:05.287Z,100734
2015-04-08T02:35:22.946Z,100740
2015-04-08T02:35:41.258Z,100734
2015-04-08T02:35:59.571Z,100731
2015-04-08T02:36:17.885Z,100740
2015-04-08T02:36:36.214Z,100743
2015-04-08T02:36:54.526Z,100728
2015-04-08T02:37:12.839Z,100731
2015-04-08T02:37:30.498Z,100731
2015-04-08T02:37:48.810Z,100740
2015-04-08T02:38:07.138Z,100731
2015-04-08T02:38:25.453Z,100737
2015-04-08T02:38:43.765Z,100728
2015-04-08T02:39:02.078Z,100734
2015-04-08T02:39:19.750Z,100723
2015-04-08T02:39:38.065Z,100734
2015-04-08T02:39:55.081Z,100734
2015-04-08T02:40:13.393Z,100731
2015-04-08T02:40:31.709Z,100723
2015-04-08T02:40:50.021Z,100728
2015-04-08T02:41:08.350Z,100731
2015-04-08T02:41:26.662Z,100734
2015-04-08T02:41:44.976Z,100731
2015-04-08T02:42:03.288Z,100731
2015-04-08T02:42:21.601Z,100731
2015-04-08T02:42:39.932Z,100737
2015-04-08T02:42:57.588Z,100731
2015-04-08T02:43:15.900Z,100731
2015-04-08T02:43:33.559Z,100734
2015-04-08T02:43:51.887Z,100734
2015-04-08T02:44:10.199Z,100734
2015-04-08T02:44:28.512Z,100723
2015-04-08T02:44:46.826Z,100726
2015-04-08T02:45:05.154Z,100731
2015-04-08T02:45:23.467Z,100737
2015-04-08T02:45:41.798Z,100723
2015-04-08T02:46:00.095Z,100723
2015-04-08T02:46:17.767Z,100723
2015-04-08T02:46:36.097Z,100734
2015-04-08T02:46:54.409Z,100714
2015-04-08T02:47:12.738Z,100723
2015-04-08T02:47:31.050Z,100731
2015-04-08T02:47:49.365Z,100720
2015-04-08T02:48:07.693Z,100720
2015-04-08T02:48:26.005Z,100717
2015-04-08T02:48:44.321Z,100729
2015-04-08T02:49:01.977Z,100714
2015-04-08T02:49:20.289Z,100726
2015-04-08T02:49:38.620Z,100720
2015-04-08T02:49:56.932Z,100728
2015-04-08T02:50:15.260Z,100728
2015-04-08T02:50:33.573Z,100726
2015-04-08T02:50:51.888Z,100731
2015-04-08T02:51:10.201Z,100723
2015-04-08T02:51:27.873Z,100728
2015-04-08T02:51:45.531Z,100723
2015-04-08T02:52:03.843Z,100723
2015-04-08T02:52:21.515Z,100720
2015-04-08T02:52:39.830Z,100717
2015-04-08T02:52:58.142Z,100731
2015-04-08T02:53:16.455Z,100723
2015-04-08T02:53:34.783Z,100714
2015-04-08T02:53:53.098Z,100717
2015-04-08T02:54:11.426Z,100717
2015-04-08T02:54:29.723Z,100720
2015-04-08T02:54:48.053Z,100726
2015-04-08T02:55:05.710Z,100728
2015-04-08T02:55:24.022Z,100714
2015-04-08T02:55:42.335Z,100734
2015-04-08T02:56:00.010Z,100720
2015-04-08T02:56:18.322Z,100720
2015-04-08T02:56:36.635Z,100723
2015-04-08T02:56:54.963Z,100711
2015-04-08T02:57:13.278Z,100723
2015-04-08T02:57:31.591Z,100720
2015-04-08T02:57:49.903Z,100720
2015-04-08T02:58:08.218Z,100726
2015-04-08T02:58:26.546Z,100714
2015-04-08T02:58:44.186Z,100723
2015-04-08T02:59:02.515Z,100726
2015-04-08T02:59:20.829Z,100720
2015-04-08T02:59:39.157Z,100726
2015-04-08T02:59:57.470Z,100723
2015-04-08T03:00:15.785Z,100734
2015-04-08T03:00:34.113Z,100723
2015-04-08T03:00:52.426Z,100723
2015-04-08T03:01:10.740Z,100717
2015-04-08T03:01:29.100Z,100717
2015-04-08T03:01:47.381Z,100720
2015-04-08T03:02:05.693Z,100731
2015-04-08T03:02:24.008Z,100731
2015-04-08T03:02:42.336Z,100723
2015-04-08T03:03:00.774Z,100728
2015-04-08T03:03:19.105Z,100734
2015-04-08T03:03:37.417Z,100734
2015-04-08T03:03:55.073Z,100734
2015-04-08T03:04:13.388Z,100734
2015-04-08T03:04:31.716Z,100734
2015-04-08T03:04:50.013Z,100725
2015-04-08T03:05:08.341Z,100740
2015-04-08T03:05:26.671Z,100726
2015-04-08T03:05:44.984Z,100731
2015-04-08T03:06:02.624Z,100723
2015-04-08T03:06:20.954Z,100734
2015-04-08T03:06:39.267Z,100740
2015-04-08T03:06:57.579Z,100731
2015-04-08T03:07:15.911Z,100728
2015-04-08T03:07:34.239Z,100731
2015-04-08T03:07:52.536Z,100737
2015-04-08T03:08:10.192Z,100737
2015-04-08T03:08:28.522Z,100723
2015-04-08T03:08:46.178Z,100726
2015-04-08T03:09:04.631Z,100734
2015-04-08T03:09:22.946Z,100734
2015-04-08T03:09:41.274Z,100731
2015-04-08T03:09:59.586Z,100723
2015-04-08T03:10:17.902Z,100734
2015-04-08T03:10:35.558Z,100723
2015-04-08T03:10:53.886Z,100731
2015-04-08T03:11:12.214Z,100740
2015-04-08T03:11:30.529Z,100726
2015-04-08T03:11:48.185Z,100731
2015-04-08T03:12:06.513Z,100714
2015-04-08T03:12:24.953Z,100726
2015-04-08T03:12:43.281Z,100717
2015-04-08T03:13:01.593Z,100723
2015-04-08T03:13:19.253Z,100740
2015-04-08T03:13:37.581Z,100731
2015-04-08T03:13:55.893Z,100731
2015-04-08T03:14:14.206Z,100728
2015-04-08T03:14:32.536Z,100740
2015-04-08T03:14:50.848Z,100734
2015-04-08T03:15:09.161Z,100726
2015-04-08T03:15:26.961Z,100728
2015-04-08T03:15:44.633Z,100734
2015-04-08T03:16:02.930Z,100734
2015-04-08T03:16:20.601Z,100731
2015-04-08T03:16:38.932Z,100743
2015-04-08T03:16:56.713Z,100737
2015-04-08T03:17:15.041Z,100743
2015-04-08T03:17:33.353Z,100731
2015-04-08T03:17:51.013Z,100740
2015-04-08T03:18:09.325Z,100737
2015-04-08T03:18:27.653Z,100726
2015-04-08T03:18:45.969Z,100731
2015-04-08T03:19:04.406Z,100726
2015-04-08T03:19:22.719Z,100731
2015-04-08T03:19:41.031Z,100728
2015-04-08T03:19:59.360Z,100726
2015-04-08T03:20:17.673Z,100726
2015-04-08T03:20:36.001Z,100720
2015-04-08T03:20:54.322Z,100737
2015-04-08T03:21:12.634Z,100734
2015-04-08T03:21:30.962Z,100740
2015-04-08T03:21:49.291Z,100743
2015-04-08T03:22:07.603Z,100726
2015-04-08T03:22:25.916Z,100740
2015-04-08T03:22:44.228Z,100731
2015-04-08T03:23:02.573Z,100734
2015-04-08T03:23:20.886Z,100740
2015-04-08T03:23:39.198Z,100731
2015-04-08T03:23:57.526Z,100734
2015-04-08T03:24:15.182Z,100746
2015-04-08T03:24:33.510Z,100723
2015-04-08T03:24:51.840Z,100720
2015-04-08T03:25:10.152Z,100728
2015-04-08T03:25:28.465Z,100726
2015-04-08T03:25:46.137Z,100740
2015-04-08T03:26:04.462Z,100723
2015-04-08T03:26:22.775Z,100734
2015-04-08T03:26:41.103Z,100720
2015-04-08T03:26:59.421Z,100726
2015-04-08T03:27:17.749Z,100731
2015-04-08T03:27:36.062Z,100734
2015-04-08T03:27:53.742Z,100731
2015-04-08T03:28:12.054Z,100728
2015-04-08T03:28:30.367Z,100740
2015-04-08T03:28:48.685Z,100720
2015-04-08T03:29:06.998Z,100731
2015-04-08T03:29:24.670Z,100734
2015-04-08T03:29:42.982Z,100723
2015-04-08T03:30:01.303Z,100734
2015-04-08T03:30:19.631Z,100743
2015-04-08T03:30:37.943Z,100731
2015-04-08T03:30:55.604Z,100737
2015-04-08T03:31:13.917Z,100740
2015-04-08T03:31:32.229Z,100734
2015-04-08T03:31:50.542Z,100740
2015-04-08T03:32:08.220Z,100734
2015-04-08T03:32:26.532Z,100723
2015-04-08T03:32:44.845Z,100737
2015-04-08T03:33:03.298Z,100731
2015-04-08T03:33:21.630Z,100734
2015-04-08T03:33:39.943Z,100743
2015-04-08T03:33:58.255Z,100743
2015-04-08T03:34:16.572Z,100734
2015-04-08T03:34:34.900Z,100740
2015-04-08T03:34:53.228Z,100737
2015-04-08T03:35:11.525Z,100746
2015-04-08T03:35:29.842Z,100743
2015-04-08T03:35:48.155Z,100737
2015-04-08T03:36:05.827Z,100734
2015-04-08T03:36:23.501Z,100734
2015-04-08T03:36:41.814Z,100743
2015-04-08T03:37:00.126Z,100737
2015-04-08T03:37:18.439Z,100737
2015-04-08T03:37:36.771Z,100743
2015-04-08T03:37:55.068Z,100749
2015-04-08T03:38:13.380Z,100746
2015-04-08T03:38:31.055Z,100752
2015-04-08T03:38:49.368Z,100737
2015-04-08T03:39:07.680Z,100749
2015-04-08T03:39:25.996Z,100734
2015-04-08T03:39:44.324Z,100740
2015-04-08T03:40:02.636Z,100746
2015-04-08T03:40:20.949Z,100740
2015-04-08T03:40:39.280Z,100743
2015-04-08T03:40:57.593Z,100740
2015-04-08T03:41:15.921Z,100743
2015-04-08T03:41:34.235Z,100737
2015-04-08T03:41:52.548Z,100734
2015-04-08T03:42:10.860Z,100740
2015-04-08T03:42:28.534Z,100749
2015-04-08T03:42:46.175Z,100737
2015-04-08T03:43:04.503Z,100737
2015-04-08T03:43:22.815Z,100743
2015-04-08T03:43:40.489Z,100743
2015-04-08T03:43:58.802Z,100740
2015-04-08T03:44:17.114Z,100740
2015-04-08T03:44:35.431Z,100734
2015-04-08T03:44:53.759Z,100746
2015-04-08T03:45:12.071Z,100737
2015-04-08T03:45:30.385Z,100740
2015-04-08T03:45:48.041Z,100743
2015-04-08T03:46:06.369Z,100737
2015-04-08T03:46:24.682Z,100731
2015-04-08T03:46:42.997Z,100737
2015-04-08T03:47:01.325Z,100746